createdAt,value
2023-03-22T00:02:43.317Z,37.36
2023-03-22T00:06:43.066Z,37.36
2023-03-22T00:10:42.841Z,37.31
2023-03-22T00:14:42.627Z,37.32
2023-03-22T00:18:42.407Z,37.33
2023-03-22T00:22:42.181Z,37.29
2023-03-22T00:26:41.977Z,37.27
2023-03-22T00:30:41.750Z,37.26
2023-03-22T00:34:41.542Z,37.26
2023-03-22T00:38:43.129Z,37.27
2023-03-22T00:42:41.290Z,37.27
2023-03-22T00:46:41.078Z,37.22
2023-03-22T00:50:41.187Z,37.22
2023-03-22T00:54:40.671Z,37.20
2023-03-22T00:58:40.463Z,37.15
2023-03-22T01:02:40.256Z,37.15
2023-03-22T01:06:40.318Z,37.16
2023-03-22T01:10:40.197Z,37.14
2023-03-22T01:14:39.630Z,37.10
2023-03-22T01:18:39.422Z,37.09
2023-03-22T01:22:39.454Z,37.06
2023-03-22T01:26:39.507Z,37.05
2023-03-22T01:30:39.588Z,37.05
2023-03-22T01:34:39.078Z,37.01
2023-03-22T01:38:38.868Z,36.99
2023-03-22T01:42:38.645Z,36.98
2023-03-22T01:46:38.502Z,36.96
2023-03-22T01:50:38.706Z,36.96
2023-03-22T01:54:37.986Z,36.93
2023-03-22T01:58:37.781Z,36.92
2023-03-22T02:02:37.704Z,36.87
2023-03-22T02:06:37.698Z,36.88
2023-03-22T02:10:38.126Z,36.85
2023-03-22T02:14:37.728Z,36.86
2023-03-22T02:18:37.505Z,36.82
2023-03-22T02:22:37.298Z,36.82
2023-03-22T02:26:37.089Z,36.77
2023-03-22T02:30:37.304Z,36.79
2023-03-22T02:34:36.699Z,36.76
2023-03-22T02:38:36.491Z,36.73
2023-03-22T02:42:36.289Z,36.71
2023-03-22T02:46:36.083Z,36.70
2023-03-22T02:50:35.864Z,36.67
2023-03-22T02:54:35.648Z,36.66
2023-03-22T02:58:35.640Z,36.65
2023-03-22T03:02:35.416Z,36.66
2023-03-22T03:06:35.200Z,36.65
2023-03-22T03:10:35.010Z,36.62
2023-03-22T03:14:34.778Z,36.59
2023-03-22T03:18:34.568Z,36.58
2023-03-22T03:22:34.369Z,36.55
2023-03-22T03:26:34.159Z,36.54
2023-03-22T03:30:33.949Z,36.52
2023-03-22T03:34:33.741Z,36.51
2023-03-22T03:38:33.527Z,36.48
2023-03-22T03:42:33.578Z,36.50
2023-03-22T03:46:33.385Z,36.50
2023-03-22T03:50:33.174Z,36.48
2023-03-22T03:54:32.983Z,36.45
2023-03-22T03:58:32.784Z,36.45
2023-03-22T04:02:32.596Z,36.44
2023-03-22T04:06:32.384Z,36.44
2023-03-22T04:10:32.176Z,36.43
2023-03-22T04:14:32.029Z,36.37
2023-03-22T04:18:31.787Z,36.37
2023-03-22T04:22:31.606Z,36.36
2023-03-22T04:26:31.619Z,36.37
2023-03-22T04:30:31.425Z,36.35
2023-03-22T04:34:31.211Z,36.32
2023-03-22T04:38:31.034Z,36.36
2023-03-22T04:42:30.815Z,36.33
2023-03-22T04:46:30.641Z,36.31
2023-03-22T04:50:30.409Z,36.28
2023-03-22T04:54:30.192Z,36.30
2023-03-22T04:58:29.995Z,36.24
2023-03-22T05:02:29.812Z,36.23
2023-03-22T05:06:29.582Z,36.22
2023-03-22T05:10:29.380Z,36.19
2023-03-22T05:14:29.212Z,36.18
2023-03-22T05:18:28.982Z,36.19
2023-03-22T05:22:28.779Z,36.15
2023-03-22T05:26:28.575Z,36.14
2023-03-22T05:30:28.366Z,36.14
2023-03-22T05:34:28.135Z,36.14
2023-03-22T05:38:28.045Z,36.12
2023-03-22T05:42:27.760Z,36.10
2023-03-22T05:46:27.551Z,36.10
2023-03-22T05:50:27.501Z,36.06
2023-03-22T05:54:27.298Z,36.12
2023-03-22T05:58:27.097Z,36.06
2023-03-22T06:02:26.879Z,36.07
2023-03-22T06:06:26.738Z,36.38
2023-03-22T06:10:26.468Z,36.28
2023-03-22T06:14:26.285Z,36.67
2023-03-22T06:18:26.086Z,37.48
2023-03-22T06:22:25.935Z,37.29
2023-03-22T06:26:25.754Z,38.41
2023-03-22T06:30:25.675Z,38.41
2023-03-22T06:34:25.422Z,38.30
2023-03-22T06:38:25.224Z,36.97
2023-03-22T06:42:25.046Z,36.72
2023-03-22T06:46:24.819Z,36.86
2023-03-22T06:50:24.641Z,36.82
2023-03-22T06:54:24.668Z,37.08
2023-03-22T06:58:24.643Z,33.97
2023-03-22T07:02:24.627Z,34.21
2023-03-22T07:06:24.691Z,32.95
2023-03-22T07:10:24.756Z,34.08
2023-03-22T07:14:24.781Z,33.67
2023-03-22T08:09:39.814Z,37.48
2023-03-22T08:13:38.972Z,37.33
2023-03-22T08:17:38.065Z,37.27
2023-03-22T08:21:37.110Z,38.59
2023-03-22T08:25:36.135Z,38.57
2023-03-22T08:29:35.194Z,38.21
2023-03-22T08:33:34.166Z,38.22
2023-03-22T08:37:33.334Z,38.07
2023-03-22T08:41:32.227Z,38.09
2023-03-22T08:45:31.264Z,38.01
2023-03-22T08:49:30.329Z,37.93
2023-03-22T08:53:29.360Z,37.87
2023-03-22T08:57:28.355Z,37.80
2023-03-22T09:01:27.618Z,37.74
2023-03-22T09:05:26.372Z,37.72
2023-03-22T09:09:27.030Z,37.72
2023-03-22T09:13:24.394Z,39.32
2023-03-22T09:17:23.425Z,39.76
2023-03-22T09:21:22.434Z,38.15
2023-03-22T09:25:21.448Z,37.53
2023-03-22T09:29:20.443Z,37.08
2023-03-22T09:33:19.462Z,37.46
2023-03-22T09:37:25.535Z,37.68
2023-03-22T09:41:17.471Z,37.75
2023-03-22T09:45:16.500Z,38.18
2023-03-22T09:49:16.051Z,38.16
2023-03-22T09:53:14.470Z,38.22
2023-03-22T09:57:13.460Z,38.01
2023-03-22T10:01:12.569Z,38.11
2023-03-22T10:05:11.470Z,37.91
2023-03-22T10:09:10.505Z,38.24
2023-03-22T10:13:09.494Z,38.20
2023-03-22T10:17:08.523Z,38.48
2023-03-22T10:21:07.574Z,40.11
2023-03-22T10:25:06.597Z,40.13
2023-03-22T10:29:05.594Z,39.56
2023-03-22T10:33:04.582Z,38.77
2023-03-22T10:37:03.571Z,38.81
2023-03-22T10:41:02.569Z,38.17
2023-03-22T10:45:01.632Z,38.02
2023-03-22T10:49:00.765Z,38.37
2023-03-22T10:52:59.833Z,38.03
2023-03-22T10:56:58.861Z,38.13
2023-03-22T11:00:58.059Z,37.73
2023-03-22T11:04:57.042Z,37.54
2023-03-22T11:08:56.118Z,37.15
2023-03-22T11:12:55.587Z,37.81
2023-03-22T11:16:54.324Z,37.48
2023-03-22T11:20:53.318Z,38.01
2023-03-22T11:24:52.377Z,37.93
2023-03-22T11:28:51.439Z,37.73
2023-03-22T11:32:50.636Z,37.68
2023-03-22T11:40:48.714Z,37.54
2023-03-22T11:44:47.844Z,37.71
2023-03-22T11:48:47.087Z,37.83
2023-03-22T11:52:46.038Z,38.06
2023-03-22T11:56:45.166Z,38.20
2023-03-22T12:00:44.264Z,38.24
2023-03-22T12:04:43.433Z,38.74
2023-03-22T12:08:42.452Z,38.15
2023-03-22T12:12:41.530Z,38.24
2023-03-22T12:16:40.618Z,38.35
2023-03-22T12:20:39.846Z,38.17
2023-03-22T12:24:38.682Z,38.47
2023-03-22T12:28:37.690Z,38.92
2023-03-22T12:32:36.807Z,39.24
2023-03-22T12:36:35.748Z,39.04
2023-03-22T12:40:34.786Z,39.03
2023-03-22T12:44:33.815Z,38.93
2023-03-22T12:48:32.956Z,38.93
2023-03-22T12:52:37.714Z,38.94
2023-03-22T12:56:31.865Z,38.90
2023-03-22T13:00:29.951Z,38.89
2023-03-22T13:04:28.888Z,38.86
2023-03-22T13:08:27.851Z,38.87
2023-03-22T13:12:26.862Z,38.86
2023-03-22T13:16:25.844Z,38.85
2023-03-22T13:20:24.844Z,38.83
2023-03-22T13:24:23.876Z,38.83
2023-03-22T13:28:32.805Z,38.78
2023-03-22T13:32:21.855Z,38.69
2023-03-22T13:36:20.864Z,38.71
2023-03-22T13:40:19.859Z,38.71
2023-03-22T13:44:18.872Z,38.68
2023-03-22T13:48:18.025Z,38.65
2023-03-22T13:52:16.884Z,38.66
2023-03-22T13:56:15.882Z,38.59
2023-03-22T14:00:15.329Z,39.12
2023-03-22T14:04:13.907Z,38.43
2023-03-22T14:08:12.910Z,38.43
2023-03-22T14:12:11.917Z,38.43
2023-03-22T14:16:10.974Z,38.49
2023-03-22T14:20:09.936Z,38.32
2023-03-22T14:49:09.302Z,38.88
2023-03-22T14:53:09.244Z,38.68
2023-03-22T14:57:09.218Z,38.61
2023-03-22T15:01:09.176Z,38.44
2023-03-22T15:05:09.169Z,38.36
2023-03-22T15:09:09.095Z,38.32
2023-03-22T15:13:09.160Z,38.24
2023-03-22T15:17:09.346Z,38.25
2023-03-22T15:21:09.553Z,38.20
2023-03-22T15:25:09.738Z,38.15
2023-03-22T15:29:09.937Z,38.17
2023-03-22T15:33:10.143Z,38.10
2023-03-22T15:37:10.343Z,38.11
2023-03-22T15:41:10.549Z,38.08
2023-03-22T15:45:10.774Z,38.09
2023-03-22T15:49:10.965Z,38.06
2023-03-22T15:53:11.197Z,38.06
2023-03-22T15:57:11.355Z,38.05
2023-03-22T16:01:11.591Z,38.03
2023-03-22T16:05:11.788Z,38.02
2023-03-22T16:09:12.000Z,38.01
2023-03-22T16:13:12.250Z,38.02
2023-03-22T16:17:12.394Z,38.05
2023-03-22T16:21:12.609Z,38.08
2023-03-22T16:25:12.809Z,38.07
2023-03-22T16:29:13.035Z,38.05
2023-03-22T16:33:13.234Z,38.05
2023-03-22T16:37:13.458Z,38.07
2023-03-22T16:41:13.394Z,38.11
2023-03-22T16:45:13.360Z,38.10
2023-03-22T16:49:13.308Z,38.13
2023-03-22T16:53:13.279Z,38.28
2023-03-22T16:57:13.224Z,38.62
2023-03-22T17:01:13.235Z,39.40
2023-03-22T17:05:13.161Z,42.69
2023-03-22T17:09:13.137Z,40.56
2023-03-22T17:13:13.115Z,40.37
2023-03-22T17:17:13.064Z,40.20
2023-03-22T17:21:13.072Z,40.13
2023-03-22T17:25:13.269Z,39.91
2023-03-22T17:29:13.482Z,39.70
2023-03-22T17:33:14.351Z,39.55
2023-03-22T17:37:13.893Z,39.43
2023-03-22T17:41:14.097Z,39.32
2023-03-22T17:45:14.082Z,39.26
2023-03-22T17:49:14.052Z,39.23
2023-03-22T17:53:32.282Z,39.19
2023-03-22T17:57:52.400Z,39.20
2023-03-22T18:01:14.999Z,39.21
2023-03-22T18:05:15.607Z,39.21
2023-03-22T18:09:13.860Z,39.24
2023-03-22T18:13:13.852Z,39.29
2023-03-22T18:17:13.887Z,39.25
2023-03-22T18:21:13.771Z,39.27
2023-03-22T18:25:13.758Z,39.24
2023-03-22T18:29:13.723Z,39.21
2023-03-22T18:33:13.710Z,39.23
2023-03-22T18:37:13.776Z,39.26
2023-03-22T18:45:15.929Z,39.34
2023-03-22T18:49:13.764Z,39.38
2023-03-22T18:53:18.678Z,39.39
2023-03-22T18:57:18.112Z,39.44
2023-03-22T19:01:14.157Z,39.49
2023-03-22T19:05:13.923Z,39.55
2023-03-22T19:09:13.870Z,39.53
2023-03-22T19:13:13.882Z,39.49
2023-03-22T19:17:13.848Z,39.46
2023-03-22T19:21:23.401Z,39.53
2023-03-22T19:25:15.088Z,39.55
2023-03-22T19:29:14.051Z,39.60
2023-03-22T19:33:30.838Z,39.55
2023-03-22T19:37:15.227Z,39.60
2023-03-22T19:41:45.115Z,39.56
2023-03-22T19:45:15.346Z,39.53
2023-03-22T19:49:15.160Z,39.47
2023-03-22T19:57:15.675Z,39.37
2023-03-22T20:01:14.655Z,39.29
2023-03-22T20:05:18.053Z,39.22
2023-03-22T20:09:14.805Z,39.24
2023-03-22T20:13:14.776Z,39.16
2023-03-22T20:17:20.856Z,39.15
2023-03-22T20:21:15.697Z,39.01
2023-03-22T20:25:14.665Z,39.04
2023-03-22T20:29:14.829Z,39.01
2023-03-22T20:33:15.024Z,38.97
2023-03-22T20:37:15.242Z,38.92
2023-03-22T20:41:15.443Z,38.87
2023-03-22T20:45:15.622Z,38.82
2023-03-22T20:49:15.808Z,38.81
2023-03-22T20:53:15.984Z,38.74
2023-03-22T20:57:16.141Z,38.72
2023-03-22T21:01:16.309Z,38.67
2023-03-22T21:05:16.519Z,38.66
2023-03-22T21:09:16.653Z,38.60
2023-03-22T21:13:16.846Z,38.60
2023-03-22T21:17:17.010Z,38.55
2023-03-22T21:21:17.239Z,38.49
2023-03-22T21:25:17.467Z,38.44
2023-03-22T21:29:17.675Z,38.45
2023-03-22T21:33:17.856Z,38.39
2023-03-22T21:37:18.029Z,38.38
2023-03-22T21:41:18.247Z,38.31
2023-03-22T21:45:18.408Z,38.32
2023-03-22T21:49:18.562Z,38.26
2023-03-22T21:53:18.743Z,38.24
2023-03-22T21:57:18.936Z,38.21
2023-03-22T22:01:19.968Z,38.20
2023-03-22T22:05:19.107Z,38.13
2023-03-22T22:09:19.066Z,38.10
2023-03-22T22:13:19.025Z,38.10
2023-03-22T22:17:18.972Z,38.07
2023-03-22T22:21:18.910Z,38.01
2023-03-22T22:25:18.878Z,38.01
2023-03-22T22:29:18.836Z,37.97
2023-03-22T22:33:18.833Z,37.96
2023-03-22T22:37:18.796Z,37.92
2023-03-22T22:41:18.752Z,37.85
2023-03-22T22:45:18.708Z,37.82
2023-03-22T22:49:18.642Z,37.80
2023-03-22T22:53:18.673Z,37.76
2023-03-22T22:57:18.811Z,37.76
2023-03-22T23:01:18.936Z,37.71
2023-03-22T23:05:19.130Z,37.68
2023-03-22T23:09:19.283Z,37.65
2023-03-22T23:13:19.429Z,37.66
2023-03-22T23:17:19.583Z,37.62
2023-03-22T23:21:19.695Z,37.59
2023-03-22T23:25:19.767Z,37.59
2023-03-22T23:29:19.882Z,37.56
2023-03-22T23:33:20.026Z,37.53
2023-03-22T23:37:20.218Z,37.51
2023-03-22T23:41:20.407Z,37.48
2023-03-22T23:45:20.549Z,37.48
2023-03-22T23:49:20.749Z,37.47
2023-03-22T23:53:20.795Z,37.43
2023-03-22T23:57:20.841Z,37.39
